createdAt,value
2022-11-16T00:01:08.464Z,5.13
2022-11-16T00:03:36.587Z,5.17
2022-11-16T00:06:07.196Z,5.21
2022-11-16T00:08:38.687Z,5.20
2022-11-16T00:11:12.020Z,5.24
2022-11-16T00:13:41.947Z,5.28
2022-11-16T00:16:18.405Z,5.31
2022-11-16T00:18:46.447Z,5.34
2022-11-16T00:21:14.770Z,5.35
2022-11-16T00:23:42.754Z,5.32
2022-11-16T00:26:12.976Z,5.26
2022-11-16T00:28:41.005Z,5.26
2022-11-16T00:31:09.911Z,5.28
2022-11-16T00:33:38.852Z,5.27
2022-11-16T00:36:10.637Z,5.28
2022-11-16T00:38:39.013Z,5.30
2022-11-16T00:41:08.322Z,5.24
2022-11-16T00:43:37.283Z,5.20
2022-11-16T00:46:06.225Z,5.12
2022-11-16T00:48:34.701Z,5.11
2022-11-16T00:51:03.715Z,5.13
2022-11-16T00:53:32.306Z,5.13
2022-11-16T00:56:00.593Z,5.18
2022-11-16T00:58:30.576Z,5.12
2022-11-16T01:01:06.526Z,5.10
2022-11-16T01:03:36.306Z,5.03
2022-11-16T01:06:07.171Z,4.99
2022-11-16T01:08:37.218Z,4.96
2022-11-16T01:11:25.028Z,5.00
2022-11-16T01:13:53.726Z,4.93
2022-11-16T01:16:23.223Z,4.98
2022-11-16T01:18:53.354Z,5.04
2022-11-16T01:21:23.173Z,5.10
2022-11-16T01:23:51.942Z,5.10
2022-11-16T01:26:20.201Z,5.16
2022-11-16T01:28:48.718Z,5.18
2022-11-16T01:31:16.744Z,5.19
2022-11-16T01:33:44.867Z,5.19
2022-11-16T01:36:21.584Z,5.15
2022-11-16T01:38:50.781Z,5.09
2022-11-16T01:41:24.040Z,5.09
2022-11-16T01:44:02.441Z,5.10
2022-11-16T01:46:46.475Z,5.18
2022-11-16T01:49:20.804Z,5.21
2022-11-16T01:51:55.471Z,5.09
2022-11-16T01:54:24.642Z,5.06
2022-11-16T01:57:00.521Z,5.06
2022-11-16T01:59:40.273Z,5.03
2022-11-16T02:02:13.255Z,4.90
2022-11-16T02:04:42.271Z,4.90
2022-11-16T02:07:27.167Z,4.90
2022-11-16T02:10:03.096Z,4.88
2022-11-16T02:12:56.671Z,4.89
2022-11-16T02:15:55.928Z,4.89
2022-11-16T02:19:11.707Z,4.96
2022-11-16T02:21:51.573Z,5.01
2022-11-16T02:24:43.805Z,5.04
2022-11-16T02:27:53.752Z,5.10
2022-11-16T02:30:24.200Z,5.13
2022-11-16T02:33:01.819Z,5.19
2022-11-16T02:35:39.001Z,5.22
2022-11-16T02:38:15.573Z,5.21
2022-11-16T02:40:48.427Z,5.19
2022-11-16T02:43:26.560Z,5.21
2022-11-16T02:45:59.645Z,5.20
2022-11-16T02:48:34.519Z,5.19
2022-11-16T02:51:06.591Z,5.15
2022-11-16T02:53:51.454Z,5.12
2022-11-16T02:56:20.965Z,5.11
2022-11-16T02:58:49.662Z,5.02
2022-11-16T03:01:27.644Z,4.94
2022-11-16T03:04:06.122Z,4.89
2022-11-16T03:06:39.518Z,4.95
2022-11-16T03:09:16.515Z,5.00
2022-11-16T03:12:00.162Z,5.08
2022-11-16T03:14:40.619Z,5.16
2022-11-16T03:17:16.696Z,5.19
2022-11-16T03:19:51.940Z,5.22
2022-11-16T03:22:38.857Z,5.26
2022-11-16T03:25:08.893Z,5.27
2022-11-16T03:27:46.073Z,5.25
2022-11-16T03:30:23.819Z,5.27
2022-11-16T03:33:06.711Z,5.30
2022-11-16T03:35:44.251Z,5.35
2022-11-16T03:38:15.508Z,5.38
2022-11-16T03:40:47.627Z,5.38
2022-11-16T03:43:18.798Z,5.38
2022-11-16T03:45:47.487Z,5.29
2022-11-16T03:48:15.571Z,5.33
2022-11-16T03:50:44.175Z,5.37
2022-11-16T03:53:12.423Z,5.37
2022-11-16T03:55:42.572Z,5.33
2022-11-16T03:58:14.024Z,5.29
2022-11-16T04:00:42.090Z,5.32
2022-11-16T04:03:11.025Z,5.31
2022-11-16T04:05:58.356Z,5.29
2022-11-16T04:08:45.382Z,5.29
2022-11-16T04:11:35.682Z,5.31
2022-11-16T04:14:23.425Z,5.32
2022-11-16T04:17:10.449Z,5.34
2022-11-16T04:19:58.355Z,5.34
2022-11-16T04:23:12.544Z,5.38
2022-11-16T04:25:43.830Z,5.34
2022-11-16T04:28:24.088Z,5.34
2022-11-16T04:31:17.552Z,5.30
2022-11-16T04:34:24.559Z,5.30
2022-11-16T04:37:13.083Z,5.30
2022-11-16T04:39:41.488Z,5.34
2022-11-16T04:42:20.005Z,5.39
2022-11-16T04:45:09.700Z,5.47
2022-11-16T04:47:43.991Z,5.49
2022-11-16T04:50:12.342Z,5.47
2022-11-16T04:52:41.309Z,5.49
2022-11-16T04:55:12.872Z,5.53
2022-11-16T04:57:41.259Z,5.56
2022-11-16T05:00:10.468Z,5.56
2022-11-16T05:02:38.955Z,5.56
2022-11-16T05:05:08.067Z,5.63
2022-11-16T05:07:37.482Z,5.65
2022-11-16T05:10:12.509Z,5.64
2022-11-16T05:12:40.888Z,5.65
2022-11-16T05:15:10.352Z,5.66
2022-11-16T05:17:38.409Z,5.69
2022-11-16T05:20:29.592Z,5.70
2022-11-16T05:23:01.738Z,5.74
2022-11-16T05:25:36.511Z,5.76
2022-11-16T05:28:07.248Z,5.75
2022-11-16T05:30:38.387Z,5.72
2022-11-16T05:33:06.779Z,5.67
2022-11-16T05:35:38.763Z,5.66
2022-11-16T05:38:07.412Z,5.62
2022-11-16T05:40:39.114Z,5.54
2022-11-16T05:43:07.982Z,5.49
2022-11-16T05:45:40.070Z,5.45
2022-11-16T05:48:08.737Z,5.47
2022-11-16T05:50:42.368Z,5.48
2022-11-16T05:53:15.745Z,5.52
2022-11-16T05:55:43.967Z,5.55
2022-11-16T05:58:12.466Z,5.56
2022-11-16T06:00:41.062Z,5.55
2022-11-16T06:03:10.396Z,5.53
2022-11-16T06:05:40.675Z,5.53
2022-11-16T06:08:10.365Z,5.53
2022-11-16T06:10:38.816Z,5.54
2022-11-16T06:13:07.285Z,5.57
2022-11-16T06:15:40.128Z,5.62
2022-11-16T06:18:09.121Z,5.60
2022-11-16T06:20:39.698Z,5.58
2022-11-16T06:23:07.994Z,5.59
2022-11-16T06:25:39.132Z,5.57
2022-11-16T06:28:08.278Z,5.56
2022-11-16T06:30:39.639Z,5.58
2022-11-16T06:33:07.887Z,5.61
2022-11-16T06:35:36.333Z,5.64
2022-11-16T06:38:05.633Z,5.66
2022-11-16T06:40:34.263Z,5.72
2022-11-16T06:43:03.005Z,5.84
2022-11-16T06:45:31.188Z,5.96
2022-11-16T06:48:00.795Z,6.02
2022-11-16T06:50:29.344Z,6.15
2022-11-16T06:53:00.928Z,6.22
2022-11-16T06:55:29.948Z,6.26
2022-11-16T06:57:58.408Z,6.33
2022-11-16T07:00:28.116Z,6.38
2022-11-16T07:02:57.212Z,6.46
2022-11-16T07:05:25.685Z,6.54
2022-11-16T07:07:55.729Z,6.62
2022-11-16T07:10:25.431Z,6.67
2022-11-16T07:12:53.810Z,6.69
2022-11-16T07:15:22.610Z,6.80
2022-11-16T07:17:50.757Z,6.90
2022-11-16T07:20:19.609Z,7.05
2022-11-16T07:22:48.416Z,7.11
2022-11-16T07:25:17.224Z,7.21
2022-11-16T07:27:45.976Z,7.29
2022-11-16T07:30:14.706Z,7.35
2022-11-16T07:33:02.138Z,7.36
2022-11-16T07:36:04.742Z,7.37
2022-11-16T07:38:34.619Z,7.28
2022-11-16T07:41:13.047Z,7.15
2022-11-16T07:43:52.794Z,7.01
2022-11-16T07:46:46.182Z,7.03
2022-11-16T07:49:18.449Z,7.09
2022-11-16T07:51:58.574Z,7.17
2022-11-16T07:54:47.366Z,7.27
2022-11-16T07:57:15.741Z,7.28
2022-11-16T07:59:43.973Z,7.35
2022-11-16T08:02:13.332Z,7.41
2022-11-16T08:04:42.828Z,7.47
2022-11-16T08:07:11.712Z,7.45
2022-11-16T08:09:50.151Z,7.42
2022-11-16T08:12:18.521Z,7.37
2022-11-16T08:14:48.128Z,7.28
2022-11-16T08:17:16.414Z,7.18
2022-11-16T08:19:45.299Z,7.06
2022-11-16T08:22:15.459Z,7.03
2022-11-16T08:24:43.713Z,7.02
2022-11-16T08:27:15.668Z,6.98
2022-11-16T08:29:44.647Z,6.94
2022-11-16T08:32:13.929Z,6.90
2022-11-16T08:34:42.391Z,6.88
2022-11-16T08:37:11.060Z,6.84
2022-11-16T08:39:43.045Z,6.82
2022-11-16T08:42:11.596Z,6.82
2022-11-16T08:44:40.360Z,6.82
2022-11-16T08:47:12.437Z,6.76
2022-11-16T08:49:49.577Z,6.82
2022-11-16T08:52:18.708Z,6.80
2022-11-16T08:54:47.408Z,6.81
2022-11-16T08:57:16.223Z,6.95
2022-11-16T08:59:45.131Z,6.99
2022-11-16T09:02:14.647Z,7.03
2022-11-16T09:04:43.975Z,7.18
2022-11-16T09:07:12.342Z,7.40
2022-11-16T09:09:40.407Z,7.48
2022-11-16T09:12:08.724Z,7.44
2022-11-16T09:14:37.097Z,7.44
2022-11-16T09:17:05.139Z,7.57
2022-11-16T09:19:33.372Z,7.60
2022-11-16T09:22:02.137Z,7.70
2022-11-16T09:24:30.391Z,7.73
2022-11-16T09:27:01.607Z,7.69
2022-11-16T09:29:30.191Z,7.61
2022-11-16T09:31:58.694Z,7.62
2022-11-16T09:34:26.822Z,7.76
2022-11-16T09:36:55.386Z,7.76
2022-11-16T09:39:30.937Z,7.71
2022-11-16T09:42:20.305Z,7.78
2022-11-16T09:45:27.489Z,7.81
2022-11-16T09:47:59.571Z,7.95
2022-11-16T09:50:33.692Z,8.07
2022-11-16T09:53:30.614Z,8.30
2022-11-16T09:56:01.657Z,8.61
2022-11-16T09:58:48.185Z,8.90
2022-11-16T10:01:48.028Z,9.18
2022-11-16T10:04:56.691Z,9.34
2022-11-16T10:07:44.383Z,9.58
2022-11-16T10:10:15.175Z,9.68
2022-11-16T10:13:16.569Z,9.87
2022-11-16T10:15:56.789Z,10.05
2022-11-16T10:18:43.230Z,10.10
2022-11-16T10:21:31.406Z,10.01
2022-11-16T10:24:21.129Z,9.92
2022-11-16T10:27:10.822Z,9.86
2022-11-16T10:30:06.977Z,9.84
2022-11-16T10:32:41.406Z,9.79
2022-11-16T10:35:12.386Z,9.75
2022-11-16T10:37:52.022Z,9.71
2022-11-16T10:40:25.100Z,9.69
2022-11-16T10:43:15.479Z,9.63
2022-11-16T10:45:52.192Z,9.64
2022-11-16T10:48:46.966Z,9.52
2022-11-16T10:51:15.463Z,9.56
2022-11-16T10:53:44.562Z,9.47
2022-11-16T10:56:20.001Z,9.53
2022-11-16T10:58:58.518Z,9.58
2022-11-16T11:01:58.855Z,9.55
2022-11-16T11:04:31.529Z,9.48
2022-11-16T11:07:01.295Z,9.44
2022-11-16T11:09:32.825Z,9.48
2022-11-16T11:12:34.379Z,9.51
2022-11-16T11:15:06.313Z,9.53
2022-11-16T11:17:36.579Z,9.67
2022-11-16T11:20:18.418Z,9.73
2022-11-16T11:22:58.186Z,9.77
2022-11-16T11:25:29.322Z,9.71
2022-11-16T11:28:16.963Z,9.71
2022-11-16T11:30:59.410Z,9.73
2022-11-16T11:33:33.887Z,9.80
2022-11-16T11:36:06.591Z,9.78
2022-11-16T11:38:54.630Z,9.87
2022-11-16T11:41:24.008Z,9.92
2022-11-16T11:44:06.639Z,9.91
2022-11-16T11:47:18.277Z,9.82
2022-11-16T11:49:34.063Z,9.72
2022-11-16T11:52:21.533Z,9.68
2022-11-16T11:54:52.944Z,9.61
2022-11-16T11:57:23.382Z,9.49
2022-11-16T11:59:54.488Z,9.47
2022-11-16T12:03:22.811Z,9.50
2022-11-16T12:06:02.376Z,9.58
2022-11-16T12:08:49.390Z,9.63
2022-11-16T12:11:23.253Z,9.63
2022-11-16T12:14:16.496Z,9.61
2022-11-16T12:17:31.337Z,9.53
2022-11-16T12:20:11.811Z,9.54
2022-11-16T12:23:11.163Z,9.54
2022-11-16T12:25:57.737Z,9.48
2022-11-16T12:28:51.016Z,9.32
2022-11-16T12:31:41.236Z,9.30
2022-11-16T12:34:32.287Z,9.29
2022-11-16T12:37:03.076Z,9.21
2022-11-16T12:39:31.168Z,9.14
2022-11-16T12:42:40.619Z,9.03
2022-11-16T12:45:31.970Z,8.88
2022-11-16T12:48:38.243Z,8.86
2022-11-16T12:51:31.586Z,8.81
2022-11-16T12:54:27.414Z,8.64
2022-11-16T12:57:15.364Z,8.62
2022-11-16T13:00:17.080Z,8.63
2022-11-16T13:03:39.608Z,8.66
2022-11-16T13:06:13.568Z,8.59
2022-11-16T13:09:01.916Z,8.54
2022-11-16T13:11:40.430Z,8.55
2022-11-16T13:14:17.217Z,8.57
2022-11-16T13:16:46.975Z,8.57
2022-11-16T13:19:17.355Z,8.48
2022-11-16T13:22:07.344Z,8.45
2022-11-16T13:24:58.821Z,8.43
2022-11-16T13:27:35.130Z,8.43
2022-11-16T13:30:16.599Z,8.39
2022-11-16T13:33:00.975Z,8.42
2022-11-16T13:35:29.863Z,8.41
2022-11-16T13:37:57.943Z,8.44
2022-11-16T13:40:29.494Z,8.43
2022-11-16T13:43:11.517Z,8.45
2022-11-16T13:45:53.942Z,8.45
2022-11-16T13:48:34.502Z,8.44
2022-11-16T13:51:09.392Z,8.32
2022-11-16T13:57:02.791Z,8.38
2022-11-16T13:59:34.716Z,8.34
2022-11-16T14:02:25.774Z,8.28
2022-11-16T14:04:56.102Z,8.24
2022-11-16T14:07:28.961Z,8.22
2022-11-16T14:09:57.629Z,8.18
2022-11-16T14:12:38.038Z,8.21
2022-11-16T14:15:24.364Z,8.17
2022-11-16T14:17:57.257Z,8.07
2022-11-16T14:20:39.733Z,8.00
2022-11-16T14:23:24.191Z,7.97
2022-11-16T14:26:10.611Z,7.94
2022-11-16T14:28:44.926Z,7.87
2022-11-16T14:31:12.994Z,7.82
2022-11-16T14:33:41.490Z,7.78
2022-11-16T14:36:10.893Z,7.78
2022-11-16T14:38:42.133Z,7.74
2022-11-16T14:41:21.369Z,7.74
2022-11-16T14:43:54.589Z,7.73
2022-11-16T14:46:27.072Z,7.69
2022-11-16T14:48:57.369Z,7.70
2022-11-16T14:51:37.231Z,7.70
2022-11-16T14:54:14.828Z,7.68
2022-11-16T14:57:00.725Z,7.69
2022-11-16T14:59:30.727Z,7.67
2022-11-16T15:02:04.360Z,7.67
2022-11-16T15:04:33.037Z,7.64
2022-11-16T15:07:05.315Z,7.64
2022-11-16T15:09:39.535Z,7.60
2022-11-16T15:12:34.753Z,7.57
2022-11-16T15:15:30.073Z,7.57
2022-11-16T15:18:01.006Z,7.55
2022-11-16T15:20:32.056Z,7.53
2022-11-16T15:23:01.992Z,7.55
2022-11-16T15:25:53.044Z,7.52
2022-11-16T15:28:28.064Z,7.49
2022-11-16T15:30:59.182Z,7.45
2022-11-16T15:33:30.469Z,7.43
2022-11-16T15:35:59.242Z,7.35
2022-11-16T15:38:27.176Z,7.34
2022-11-16T15:40:58.655Z,7.30
2022-11-16T15:43:31.557Z,7.28
2022-11-16T15:46:01.493Z,7.24
2022-11-16T15:48:30.462Z,7.25
2022-11-16T15:51:15.357Z,7.23
2022-11-16T15:53:45.925Z,7.25
2022-11-16T15:56:16.804Z,7.27
2022-11-16T15:58:46.377Z,7.25
2022-11-16T16:01:15.662Z,7.22
2022-11-16T16:04:05.743Z,7.18
2022-11-16T16:06:55.637Z,7.13
2022-11-16T16:09:36.917Z,7.09
2022-11-16T16:12:21.009Z,7.10
2022-11-16T16:14:51.360Z,7.10
2022-11-16T16:17:25.701Z,7.12
2022-11-16T16:20:02.890Z,7.13
2022-11-16T16:22:34.991Z,7.13
2022-11-16T16:25:07.299Z,7.15
2022-11-16T16:27:41.465Z,7.16
2022-11-16T16:30:14.688Z,7.15
2022-11-16T16:32:42.646Z,7.15
2022-11-16T16:35:17.951Z,7.15
2022-11-16T16:37:50.069Z,7.15
2022-11-16T16:40:19.046Z,7.12
2022-11-16T16:42:51.036Z,7.11
2022-11-16T16:45:24.520Z,7.11
2022-11-16T16:47:52.702Z,7.08
2022-11-16T16:50:20.990Z,7.07
2022-11-16T16:52:49.475Z,7.02
2022-11-16T16:55:17.454Z,6.97
2022-11-16T16:57:45.761Z,6.97
2022-11-16T17:00:14.382Z,6.98
2022-11-16T17:02:42.391Z,6.99
2022-11-16T17:05:10.440Z,6.99
2022-11-16T17:07:38.613Z,7.00
2022-11-16T17:10:06.952Z,7.02
2022-11-16T17:12:35.233Z,7.02
2022-11-16T17:15:03.663Z,7.01
2022-11-16T17:17:31.700Z,7.01
2022-11-16T17:20:00.039Z,7.03
2022-11-16T17:22:28.144Z,7.01
2022-11-16T17:24:56.356Z,7.03
2022-11-16T17:27:24.641Z,7.06
2022-11-16T17:29:52.689Z,7.06
2022-11-16T17:32:20.690Z,7.04
2022-11-16T17:34:48.768Z,7.00
2022-11-16T17:37:16.849Z,6.97
2022-11-16T17:39:44.883Z,6.94
2022-11-16T17:42:13.171Z,6.92
2022-11-16T17:44:41.288Z,6.89
2022-11-16T17:47:09.273Z,6.89
2022-11-16T17:49:37.424Z,6.89
2022-11-16T17:52:06.439Z,6.90
2022-11-16T17:54:34.518Z,6.95
2022-11-16T17:57:02.696Z,6.91
2022-11-16T17:59:30.981Z,6.91
2022-11-16T18:01:59.061Z,6.92
2022-11-16T18:04:27.129Z,6.94
2022-11-16T18:06:56.209Z,6.94
2022-11-16T18:09:24.521Z,6.91
2022-11-16T18:11:52.602Z,6.91
2022-11-16T18:14:20.784Z,6.90
2022-11-16T18:16:48.971Z,6.84
2022-11-16T18:19:18.699Z,6.84
2022-11-16T18:21:46.972Z,6.83
2022-11-16T18:24:15.472Z,6.81
2022-11-16T18:26:43.931Z,6.76
2022-11-16T18:29:15.528Z,6.76
2022-11-16T18:31:43.732Z,6.75
2022-11-16T18:34:14.555Z,6.72
2022-11-16T18:36:42.653Z,6.72
2022-11-16T18:39:10.849Z,6.72
2022-11-16T18:41:46.550Z,6.68
2022-11-16T18:44:18.196Z,6.68
2022-11-16T18:46:46.276Z,6.65
2022-11-16T18:49:15.385Z,6.63
2022-11-16T18:51:43.461Z,6.63
2022-11-16T18:54:11.539Z,6.64
2022-11-16T18:56:39.464Z,6.65
2022-11-16T18:59:07.456Z,6.61
2022-11-16T19:01:35.523Z,6.59
2022-11-16T19:04:03.792Z,6.59
2022-11-16T19:06:32.164Z,6.57
2022-11-16T19:09:00.353Z,6.54
2022-11-16T19:11:29.128Z,6.55
2022-11-16T19:14:07.851Z,6.55
2022-11-16T19:16:36.300Z,6.54
2022-11-16T19:19:04.520Z,6.54
2022-11-16T19:21:32.570Z,6.53
2022-11-16T19:24:00.565Z,6.50
2022-11-16T19:26:28.665Z,6.48
2022-11-16T19:28:56.671Z,6.47
2022-11-16T19:31:27.345Z,6.45
2022-11-16T19:34:07.892Z,6.49
2022-11-16T19:36:37.270Z,6.53
2022-11-16T19:39:06.109Z,6.55
2022-11-16T19:41:34.348Z,6.56
2022-11-16T19:44:02.642Z,6.54
2022-11-16T19:46:32.792Z,6.49
2022-11-16T19:49:01.221Z,6.49
2022-11-16T19:51:32.191Z,6.47
2022-11-16T19:54:02.532Z,6.46
2022-11-16T19:56:31.230Z,6.44
2022-11-16T19:58:59.274Z,6.46
2022-11-16T20:01:29.598Z,6.47
2022-11-16T20:04:00.764Z,6.44
2022-11-16T20:06:37.773Z,6.47
2022-11-16T20:09:09.254Z,6.50
2022-11-16T20:11:39.977Z,6.51
2022-11-16T20:14:11.649Z,6.52
2022-11-16T20:16:41.256Z,6.51
2022-11-16T20:19:10.474Z,6.47
2022-11-16T20:21:40.675Z,6.49
2022-11-16T20:24:14.047Z,6.49
2022-11-16T20:26:45.023Z,6.49
2022-11-16T20:29:14.600Z,6.51
2022-11-16T20:31:45.320Z,6.49
2022-11-16T20:34:16.609Z,6.50
2022-11-16T20:36:46.540Z,6.50
2022-11-16T20:39:16.794Z,6.49
2022-11-16T20:41:45.386Z,6.46
2022-11-16T20:44:21.197Z,6.43
2022-11-16T20:46:52.236Z,6.41
2022-11-16T20:49:20.512Z,6.40
2022-11-16T20:51:49.708Z,6.38
2022-11-16T20:54:17.794Z,6.33
2022-11-16T20:56:48.329Z,6.31
2022-11-16T20:59:16.747Z,6.31
2022-11-16T21:01:47.965Z,6.31
2022-11-16T21:04:16.507Z,6.33
2022-11-16T21:06:44.652Z,6.32
2022-11-16T21:09:15.725Z,6.27
2022-11-16T21:12:02.622Z,6.26
2022-11-16T21:14:30.697Z,6.26
2022-11-16T21:16:58.983Z,6.29
2022-11-16T21:19:27.063Z,6.30
2022-11-16T21:21:55.118Z,6.29
2022-11-16T21:24:24.833Z,6.28
2022-11-16T21:26:53.557Z,6.24
2022-11-16T21:29:26.063Z,6.23
2022-11-16T21:31:54.100Z,6.19
2022-11-16T21:34:24.459Z,6.18
2022-11-16T21:36:52.635Z,6.18
2022-11-16T21:39:20.615Z,6.14
2022-11-16T21:41:48.697Z,6.11
2022-11-16T21:44:16.673Z,6.14
2022-11-16T21:46:44.849Z,6.16
2022-11-16T21:49:12.834Z,6.14
2022-11-16T21:51:40.912Z,6.14
2022-11-16T21:54:08.886Z,6.11
2022-11-16T21:56:36.843Z,6.14
2022-11-16T21:59:05.617Z,6.13
2022-11-16T22:01:53.825Z,6.14
2022-11-16T22:04:40.842Z,6.19
2022-11-16T22:07:32.941Z,6.22
2022-11-16T22:10:02.613Z,6.20
2022-11-16T22:12:30.796Z,6.17
2022-11-16T22:14:59.004Z,6.17
2022-11-16T22:17:27.451Z,6.16
2022-11-16T22:19:55.756Z,6.14
2022-11-16T22:22:24.571Z,6.16
2022-11-16T22:24:52.537Z,6.18
2022-11-16T22:27:21.132Z,6.20
2022-11-16T22:29:49.347Z,6.12
2022-11-16T22:32:17.336Z,6.13
2022-11-16T22:34:45.314Z,6.15
2022-11-16T22:37:13.360Z,6.14
2022-11-16T22:39:41.448Z,6.16
2022-11-16T22:42:09.724Z,6.18
2022-11-16T22:44:37.800Z,6.15
2022-11-16T22:47:05.881Z,6.18
2022-11-16T22:49:33.961Z,6.20
2022-11-16T22:52:02.171Z,6.19
2022-11-16T22:54:31.149Z,6.19
2022-11-16T22:57:00.809Z,6.18
2022-11-16T22:59:29.664Z,6.16
2022-11-16T23:01:57.744Z,6.15
2022-11-16T23:04:26.032Z,6.19
2022-11-16T23:06:54.224Z,6.22
2022-11-16T23:09:22.199Z,6.22
2022-11-16T23:12:08.911Z,6.21
2022-11-16T23:14:57.249Z,6.17
2022-11-16T23:17:25.352Z,6.13
2022-11-16T23:20:17.289Z,6.14
2022-11-16T23:23:04.316Z,6.16
2022-11-16T23:25:51.754Z,6.14
2022-11-16T23:28:20.346Z,6.14
2022-11-16T23:30:48.408Z,6.14
2022-11-16T23:33:16.713Z,6.09
2022-11-16T23:35:44.828Z,6.06
2022-11-16T23:38:12.879Z,6.04
2022-11-16T23:40:40.852Z,6.01
2022-11-16T23:43:29.610Z,6.00
2022-11-16T23:45:57.603Z,6.01
2022-11-16T23:48:25.680Z,6.02
2022-11-16T23:50:53.763Z,6.05
2022-11-16T23:53:21.735Z,6.02
2022-11-16T23:55:49.718Z,6.02
2022-11-16T23:58:17.694Z,5.97
